• Join FlightAware (Why Join?)
  • Login
  • US Flag 
04:17PM EDT


 

Airport Tracker/Info


-or-


 

Live Flight TrackerFlight Track Log ✈ SKW4796 ✈ 19-Jul-2013 ✈ KLAX - KPHX

Flight Track Log - Related Links

Times and Time Zones

All times are in EDT time to prevent confusion due to time zone crossing. See the SKW4796 flight status page for this flight to view local times or setup timezone preferences in your user account.

Time Position Orientation Groundspeed Altitude Reporting Facility
EDT Latitude Longitude Course Direction KTS MPH feet Rate Location/Type
12:06AM 33.9328 -118.4414 90° East 178 205 1,400  Level Los Angeles Center
12:07AM 33.8883 -118.5147 234° Southwest 242 278 3,400 2,280 Climbing Los Angeles Center
12:08AM 33.8214 -118.5539 206° Southwest 276 318 6,100 2,460 Climbing Los Angeles Center
12:09AM 33.7458 -118.5336 167° South 282 325 8,500 1,980 Climbing Los Angeles Center
12:10AM 33.6777 -118.4827 101° East  Level FlightAware Approximate
12:10AM 33.6853 -118.4778 142° Southeast 297 342 10,200  Level Los Angeles Center
12:11AM 33.6458 -118.3645 116° Southeast  Level FlightAware Approximate
12:11AM 33.6542 -118.3794 111° Southeast 316 364 12,000  Level Los Angeles Center
12:12AM 33.6333 -118.2429 90° East  Level FlightAware Approximate
12:13AM 33.6436 -118.2467 95° East 339 390 14,100  Level Los Angeles Center
12:14AM 33.6433 -118.1053 90° East 355 409 16,000 1,800 Climbing Los Angeles Center
12:15AM 33.6436 -117.9817 90° East 369 425 17,800 1,740 Climbing Los Angeles Center
12:16AM 33.6431 -117.8550 90° East 379 436 19,600 1,560 Climbing Los Angeles Center
12:17AM 33.6433 -117.7289 90° East 381 438 21,100 1,200 Climbing Los Angeles Center
12:18AM 33.6436 -117.5947 90° East 397 457 22,100 1,080 Climbing Los Angeles Center
12:19AM 33.6431 -117.4269 90° East 416 479 23,400 1,080 Climbing Los Angeles Center
12:20AM 33.6425 -117.2819 90° East 429 494 24,400 960 Climbing Los Angeles Center
12:21AM 33.6394 -117.1350 91° East 439 505 25,400 1,020 Climbing Los Angeles Center
12:22AM 33.6322 -116.9861 93° East 445 512 26,500 1,080 Climbing Los Angeles Center
12:23AM 33.6231 -116.8306 94° East 450 518 27,700 1,140 Climbing Los Angeles Center
12:24AM 33.6164 -116.6806 93° East 451 519 28,900 1,140 Climbing Los Angeles Center
12:25AM 33.6092 -116.5328 93° East 444 511 30,100 1,140 Climbing Los Angeles Center
12:26AM 33.6014 -116.3850 94° East 443 510 31,300 1,200 Climbing Los Angeles Center
12:27AM 33.5956 -116.2394 93° East 438 504 32,600 1,200 Climbing Los Angeles Center
12:28AM 33.5861 -116.0942 94° East 434 499 33,800 1,020 Climbing Los Angeles Center
12:29AM 33.5789 -115.9517 93° East 428 493 34,800 540 Climbing Los Angeles Center
12:30AM 33.5700 -115.8072 94° East 433 498 35,000 60 Climbing Los Angeles Center
12:31AM 33.5600 -115.6244 94° East 456 525 35,000  Level Los Angeles Center
12:32AM 33.5511 -115.4683 94° East 466 536 35,000  Level Los Angeles Center
12:33AM 33.5408 -115.3131 94° East 468 539 35,000  Level Los Angeles Center
12:34AM 33.5311 -115.1592 94° East 464 534 35,000  Level Los Angeles Center
12:35AM 33.5211 -115.0056 94° East 464 534 35,000  Level Los Angeles Center
12:36AM 33.5122 -114.8508 94° East 466 536 35,000 -60 Level Los Angeles Center
12:37AM 33.5031 -114.6978 94° East 463 533 34,900 -1,620 Descending Los Angeles Center
12:38AM 33.4925 -114.5436 95° East 464 534 31,800 -3,300 Descending Los Angeles Center
12:39AM 33.4817 -114.3858 95° East 477 549 28,200 -3,480 Descending Los Angeles Center
12:40AM 33.4764 -114.2697 93° East 471 542 25,800 -1,920 Descending Albuquerque Center
12:41AM 33.4664 -114.1272 95° East 441 507 24,900 -420 Descending Albuquerque Center
12:42AM 33.4469 -113.9972 100° East 407 468 25,000  Climbing Albuquerque Center
12:43AM 33.4197 -113.8672 104° East 403 464 25,000 -120 Level Albuquerque Center
12:44AM 33.3956 -113.7403 103° East 395 455 24,800 -1,080 Descending Albuquerque Center
12:45AM 33.3647 -113.5900 104° East 389 448 22,900 -1,860 Descending Albuquerque Center
12:46AM 33.3381 -113.4650 104° East 388 447 21,100 -1,740 Descending Albuquerque Center
12:47AM 33.3119 -113.3392 104° East 388 447 19,400 -1,680 Descending Albuquerque Center
12:48AM 33.2886 -113.2228 103° East 371 427 17,700 -1,680 Descending Albuquerque Center
12:49AM 33.2736 -113.1111 99° East 346 398 16,100 -1,500 Descending Albuquerque Center
12:50AM 33.2758 -113.0036 89° East 328 377 14,700 -1,740 Descending Albuquerque Center
12:51AM 33.2786 -112.8983 88° East 320 368 12,700 -1,740 Descending Albuquerque Center
12:52AM 33.2878 -112.8017 84° East 301 346 11,300 -1,380 Descending Albuquerque Center
12:53AM 33.3197 -112.7158 66° East 284 327 9,900 -840 Descending Albuquerque Center
12:54AM 33.3492 -112.6356 66° East 270 311 9,700 -960 Descending Albuquerque Center
12:55AM 33.3778 -112.5428 70° East 276 318 8,000 -1,440 Descending Albuquerque Center
12:56AM 33.3944 -112.4511 78° East 282 325 6,800 -1,440 Descending Albuquerque Center
12:57AM 33.4128 -112.3597 76° East 283 326 5,100 -1,380 Descending Albuquerque Center
12:58AM 33.4306 -112.2697 77° East 280 322 4,000 -660 Descending Albuquerque Center
12:59AM 33.4414 -112.1886 81° East 243 280 3,800 -240 Descending Albuquerque Center